createdAt,value
2018-12-15T00:01:15.479Z,-0.60
2018-12-15T00:06:05.284Z,-0.60
2018-12-15T00:10:49.245Z,-0.60
2018-12-15T00:15:33.848Z,-0.70
2018-12-15T00:20:17.821Z,-0.70
2018-12-15T00:25:02.060Z,-0.60
2018-12-15T00:29:45.955Z,-0.70
2018-12-15T00:34:30.094Z,-0.70
2018-12-15T00:39:13.943Z,-0.70
2018-12-15T00:43:57.528Z,-0.70
2018-12-15T00:48:41.248Z,-0.70
2018-12-15T00:53:25.049Z,-0.70
2018-12-15T00:58:08.663Z,-0.70
2018-12-15T01:02:52.446Z,-0.70
2018-12-15T01:07:36.201Z,-0.80
2018-12-15T01:12:37.886Z,-0.80
2018-12-15T01:17:25.259Z,-0.80
2018-12-15T01:22:12.369Z,-0.90
2018-12-15T01:27:05.737Z,-0.80
2018-12-15T01:32:01.626Z,-0.90
2018-12-15T01:36:57.858Z,-0.90
2018-12-15T01:41:45.218Z,-0.90
2018-12-15T01:46:34.949Z,-0.90
2018-12-15T01:51:24.723Z,-0.90
2018-12-15T02:01:22.516Z,-0.90
2018-12-15T02:06:12.617Z,-0.80
2018-12-15T02:16:12.573Z,-1.00
2018-12-15T02:21:05.657Z,-1.00
2018-12-15T02:26:10.002Z,-1.00
2018-12-15T02:31:04.047Z,-1.00
2018-12-15T02:35:49.778Z,-1.00
2018-12-15T02:40:42.989Z,-1.00
2018-12-15T02:45:30.340Z,-1.00
2018-12-15T02:50:17.771Z,-1.00
2018-12-15T02:55:11.254Z,-1.10
2018-12-15T03:00:08.366Z,-1.00
2018-12-15T03:04:53.535Z,-1.00
2018-12-15T03:15:07.224Z,-1.00
2018-12-15T03:25:05.503Z,-1.20
2018-12-15T03:29:53.106Z,-1.20
2018-12-15T03:34:41.099Z,-1.10
2018-12-15T03:39:28.147Z,-1.10
2018-12-15T03:44:13.078Z,-1.10
2018-12-15T03:48:56.730Z,-1.10
2018-12-15T03:53:40.391Z,-1.10
2018-12-15T03:58:24.119Z,-1.10
2018-12-15T04:03:07.769Z,-1.10
2018-12-15T04:07:51.469Z,-1.10
2018-12-15T04:12:35.222Z,-1.10
2018-12-15T04:17:18.887Z,-1.00
2018-12-15T04:22:13.639Z,-1.10
2018-12-15T04:26:57.337Z,-1.00
2018-12-15T04:31:40.995Z,-1.00
2018-12-15T04:36:24.860Z,-1.00
2018-12-15T04:41:08.444Z,-1.10
2018-12-15T04:45:52.023Z,-1.00
2018-12-15T04:50:35.711Z,-1.10
2018-12-15T04:55:20.319Z,-1.00
2018-12-15T05:00:04.371Z,-1.20
2018-12-15T05:04:48.111Z,-1.10
2018-12-15T05:09:31.870Z,-1.10
2018-12-15T05:14:15.528Z,-1.10
2018-12-15T05:18:59.256Z,-1.20
2018-12-15T05:23:42.889Z,-1.10
2018-12-15T05:28:26.557Z,-1.10
2018-12-15T05:33:10.179Z,-1.10
2018-12-15T05:37:53.883Z,-1.10
2018-12-15T05:42:37.607Z,-1.00
2018-12-15T05:47:21.312Z,-1.10
2018-12-15T05:52:05.142Z,-1.10
2018-12-15T05:56:49.065Z,-1.00
2018-12-15T06:01:32.815Z,-1.10
2018-12-15T06:06:16.959Z,-1.00
2018-12-15T06:11:00.621Z,-1.10
2018-12-15T06:15:44.416Z,-1.20
2018-12-15T06:20:28.141Z,-1.20
2018-12-15T06:25:11.885Z,-1.30
2018-12-15T06:29:55.668Z,-1.20
2018-12-15T06:34:39.427Z,-1.20
2018-12-15T06:39:23.101Z,-1.10
2018-12-15T06:44:07.277Z,-1.30
2018-12-15T06:48:50.911Z,-1.20
2018-12-15T06:53:34.625Z,-1.30
2018-12-15T06:58:18.337Z,-1.20
2018-12-15T07:03:02.209Z,-1.30
2018-12-15T07:07:46.047Z,-1.10
2018-12-15T07:12:39.939Z,-1.20
2018-12-15T07:17:27.211Z,-1.20
2018-12-15T07:22:22.990Z,-1.20
2018-12-15T07:27:12.770Z,-1.30
2018-12-15T07:31:59.550Z,-1.20
2018-12-15T07:36:46.987Z,-1.20
2018-12-15T07:41:32.656Z,-1.10
2018-12-15T07:46:20.377Z,-1.10
2018-12-15T07:56:15.408Z,-1.20
2018-12-15T08:00:59.179Z,-1.10
2018-12-15T08:05:42.953Z,-1.00
2018-12-15T08:10:28.744Z,-1.00
2018-12-15T08:15:13.088Z,-1.00
2018-12-15T08:19:56.881Z,-1.10
2018-12-15T08:24:40.681Z,-1.20
2018-12-15T08:29:24.671Z,-1.00
2018-12-15T08:34:08.481Z,-0.90
2018-12-15T08:38:52.231Z,-0.90
2018-12-15T08:43:35.967Z,-0.90
2018-12-15T08:48:31.808Z,-0.80
2018-12-15T08:58:27.083Z,-0.80
2018-12-15T09:03:12.138Z,-0.80
2018-12-15T09:07:56.156Z,-0.80
2018-12-15T09:12:40.410Z,-0.80
2018-12-15T09:17:24.681Z,-0.80
2018-12-15T09:22:11.355Z,-0.80
2018-12-15T09:26:55.997Z,-0.80
2018-12-15T09:31:40.094Z,-0.70
2018-12-15T09:36:23.887Z,-0.60
2018-12-15T09:41:08.617Z,-0.60
2018-12-15T09:45:52.406Z,-0.50
2018-12-15T09:50:36.350Z,-0.40
2018-12-15T09:55:20.286Z,-0.40
2018-12-15T10:00:04.600Z,-0.50
2018-12-15T10:04:48.629Z,-0.50
2018-12-15T10:09:32.682Z,-0.50
2018-12-15T10:14:16.803Z,-0.30
2018-12-15T10:19:00.878Z,-0.30
2018-12-15T10:23:44.800Z,-0.20
2018-12-15T10:28:28.621Z,-0.30
2018-12-15T10:33:12.449Z,-0.30
2018-12-15T10:37:56.101Z,-0.40
2018-12-15T10:42:41.127Z,-0.40
2018-12-15T10:47:24.899Z,-0.50
2018-12-15T10:52:10.112Z,-0.50
2018-12-15T10:56:54.795Z,-0.60
2018-12-15T11:01:38.584Z,-0.70
2018-12-15T11:06:22.327Z,-0.70
2018-12-15T11:11:06.199Z,-0.70
2018-12-15T11:15:50.223Z,-0.70
2018-12-15T11:20:35.210Z,-0.60
2018-12-15T11:25:19.232Z,-0.60
2018-12-15T11:30:03.113Z,-0.70
2018-12-15T11:34:46.846Z,-0.70
2018-12-15T11:39:30.599Z,-0.60
2018-12-15T11:44:14.396Z,-0.70
2018-12-15T11:48:58.264Z,-0.60
2018-12-15T11:53:42.394Z,-0.60
2018-12-15T11:58:26.258Z,-0.60
2018-12-15T12:03:10.957Z,-0.60
2018-12-15T12:08:05.101Z,-0.60
2018-12-15T12:28:17.907Z,-0.50
2018-12-15T12:33:01.662Z,-0.50
2018-12-15T12:37:45.627Z,-0.50
2018-12-15T12:42:29.548Z,-0.50
2018-12-15T12:47:13.355Z,-0.40
2018-12-15T12:51:57.124Z,-0.50
2018-12-15T12:56:42.402Z,-0.60
2018-12-15T13:01:26.499Z,-0.70
2018-12-15T13:06:10.148Z,-0.70
2018-12-15T13:10:54.136Z,-0.70
2018-12-15T13:15:37.967Z,-0.70
2018-12-15T13:20:21.871Z,-0.70
2018-12-15T13:25:05.539Z,-0.70
2018-12-15T13:29:49.314Z,-0.60
2018-12-15T13:34:33.257Z,-0.70
2018-12-15T13:39:16.998Z,-0.70
2018-12-15T13:44:01.652Z,-0.60
2018-12-15T13:48:45.402Z,-0.70
2018-12-15T13:53:29.369Z,-0.80
2018-12-15T13:58:25.349Z,-0.70
2018-12-15T14:03:09.129Z,-0.60
2018-12-15T14:07:53.180Z,-0.70
2018-12-15T14:12:37.857Z,-0.70
2018-12-15T14:17:21.662Z,-0.70
2018-12-15T14:22:06.263Z,-0.70
2018-12-15T14:26:50.081Z,-0.70
2018-12-15T14:31:33.808Z,-0.80
2018-12-15T14:36:17.472Z,-0.80
2018-12-15T14:41:01.377Z,-0.70
2018-12-15T14:45:45.226Z,-0.70
2018-12-15T14:50:29.120Z,-0.70
2018-12-15T14:55:12.947Z,-0.70
2018-12-15T14:59:58.755Z,-0.70
2018-12-15T15:04:54.328Z,-0.70
2018-12-15T15:09:42.802Z,-0.80
2018-12-15T15:14:36.116Z,-0.80
2018-12-15T15:19:29.374Z,-0.70
2018-12-15T15:24:17.160Z,-0.80
2018-12-15T15:29:12.779Z,-0.80
2018-12-15T15:34:06.911Z,-0.80
2018-12-15T15:38:51.882Z,-0.80
2018-12-15T15:43:47.780Z,-0.80
2018-12-15T15:59:11.540Z,-0.80
2018-12-15T16:04:01.717Z,-0.90
2018-12-15T16:08:50.340Z,-0.90
2018-12-15T16:13:34.107Z,-0.90
2018-12-15T16:18:17.975Z,-0.90
2018-12-15T16:23:02.052Z,-0.90
2018-12-15T16:27:45.959Z,-0.80
2018-12-15T16:32:29.660Z,-0.90
2018-12-15T16:37:13.649Z,-0.90
2018-12-15T16:41:57.509Z,-0.90
2018-12-15T16:46:41.564Z,-1.00
2018-12-15T16:51:25.261Z,-1.00
2018-12-15T16:56:09.193Z,-0.90
2018-12-15T17:00:52.971Z,-0.80
2018-12-15T17:05:36.909Z,-0.90
2018-12-15T17:10:21.183Z,-1.00
2018-12-15T17:15:07.167Z,-1.00
2018-12-15T17:19:50.854Z,-0.90
2018-12-15T17:24:34.569Z,-0.80
2018-12-15T17:29:18.311Z,-0.90
2018-12-15T17:34:02.026Z,-0.90
2018-12-15T17:38:45.760Z,-0.80
2018-12-15T17:43:29.683Z,-0.80
2018-12-15T17:48:25.691Z,-0.80
2018-12-15T18:03:30.043Z,-0.70
2018-12-15T18:08:17.039Z,-0.70
2018-12-15T18:13:06.874Z,-0.70
2018-12-15T18:18:02.979Z,-0.70
2018-12-15T18:28:00.459Z,-0.70
2018-12-15T18:33:00.439Z,-0.80
2018-12-15T18:37:53.565Z,-0.80
2018-12-15T18:42:37.387Z,-0.80
2018-12-15T18:47:21.434Z,-0.70
2018-12-15T18:52:05.269Z,-0.80
2018-12-15T18:56:49.416Z,-0.80
2018-12-15T19:01:33.361Z,-0.80
2018-12-15T19:06:22.630Z,-0.90
2018-12-15T19:11:08.335Z,-1.00
2018-12-15T19:21:03.367Z,-1.00
2018-12-15T19:25:47.217Z,-1.00
2018-12-15T19:30:31.087Z,-1.00
2018-12-15T19:35:14.934Z,-0.90
2018-12-15T19:39:58.665Z,-0.90
2018-12-15T19:44:42.407Z,-1.00
2018-12-15T19:49:26.208Z,-0.90
2018-12-15T19:54:09.979Z,-0.80
2018-12-15T19:58:53.874Z,-0.80
2018-12-15T20:03:38.195Z,-0.80
2018-12-15T20:18:40.371Z,-0.90
2018-12-15T20:23:30.553Z,-0.90
2018-12-15T20:28:17.750Z,-0.90
2018-12-15T20:38:17.688Z,-0.90
2018-12-15T20:43:14.400Z,-0.80
2018-12-15T20:48:04.339Z,-0.70
2018-12-15T20:57:56.490Z,-0.70
2018-12-15T21:02:44.448Z,-0.80
2018-12-15T21:12:38.914Z,-0.80
2018-12-15T21:17:26.772Z,-0.80
2018-12-15T21:27:43.360Z,-0.90
2018-12-15T21:58:22.310Z,-0.90
2018-12-15T22:03:15.444Z,-1.00
2018-12-15T22:07:59.359Z,-1.10
2018-12-15T22:12:52.600Z,-1.00
2018-12-15T22:17:36.298Z,-1.00
2018-12-15T22:22:39.266Z,-1.00
2018-12-15T22:27:29.217Z,-1.10
2018-12-15T22:32:18.614Z,-1.20
2018-12-15T22:37:23.832Z,-1.20
2018-12-15T22:42:17.522Z,-1.10
2018-12-15T22:47:09.701Z,-1.10
2018-12-15T22:52:09.696Z,-1.00
2018-12-15T22:56:55.511Z,-1.10
2018-12-15T23:01:47.073Z,-1.10
2018-12-15T23:06:34.780Z,-1.10
2018-12-15T23:11:20.572Z,-1.20
2018-12-15T23:16:14.101Z,-1.00
2018-12-15T23:21:01.420Z,-0.90
2018-12-15T23:25:57.123Z,-1.00
2018-12-15T23:30:44.882Z,-1.00
2018-12-15T23:35:34.783Z,-1.00
2018-12-15T23:40:30.187Z,-0.90
2018-12-15T23:45:24.486Z,-0.90
2018-12-15T23:50:11.623Z,-0.90
2018-12-15T23:54:58.565Z,-0.90
2018-12-15T23:59:54.125Z,-0.90
